الصفحة الرئيسية
METAR-TAF:

METAR-TAF

مطار :

Meekatharra, أستراليا

دائرة عرض: 26-36-42S, خط طول: 118-32-52E, ارتفاع: 522 متر

مراقبة الطقس الحالي

تاريخ ووقت الإصدار 19 دقيقة قبل الساعة 16:00UTC
ريح 10 عقدة من الشرق
درجة الحرارة 21°درجة مئوية
الرطوبة 21%
ضغط 1020 hPa
الرؤية 10 كم أو أكثر

METAR: YMEK 221600Z AUTO 10010KT 9999 // NCD 21/M02 Q1020

زمن: 00:19 (16:19 UTC)


TAF: مفقودة

أرصاد الطقس والتوقعات من أكثر من 4000 مطار (تقارير الطقس للمطار METAR والتنبؤ بالطقس بالمطارTAF).

المحطات المتاحة هي النقط الصفراء والحمراء على الخريطة.

حرك المؤشر فوق النقطة لمعرفة اسم المحطة.

ثم انقر لمعرفة أرصاد وتوقعات الطقس.

لتغيير الخارطة: اضغط على الأزرار الخضراء مع رمز الصليب الأسود للتكبير. على الزر الأخضر مع شرطة للتصغير، أو على الأسهم الخضراء للخرائط المجاورة.


METAR-TAF: